createdAt,value
2019-01-23T00:00:45.683Z,-1.60
2019-01-23T00:03:12.963Z,-1.60
2019-01-23T00:05:40.462Z,-1.70
2019-01-23T00:08:07.807Z,-1.70
2019-01-23T00:10:35.069Z,-1.60
2019-01-23T00:13:03.532Z,-1.60
2019-01-23T00:15:30.946Z,-1.60
2019-01-23T00:17:58.175Z,-1.70
2019-01-23T00:20:25.419Z,-1.70
2019-01-23T00:22:52.639Z,-1.70
2019-01-23T00:25:19.942Z,-1.80
2019-01-23T00:27:47.784Z,-1.70
2019-01-23T00:30:15.156Z,-1.70
2019-01-23T00:32:42.387Z,-1.60
2019-01-23T00:35:09.771Z,-1.70
2019-01-23T00:37:37.497Z,-1.70
2019-01-23T00:40:05.582Z,-1.80
2019-01-23T00:42:32.808Z,-1.70
2019-01-23T00:45:00.271Z,-1.70
2019-01-23T00:47:27.562Z,-1.60
2019-01-23T00:49:54.824Z,-1.50
2019-01-23T00:52:22.079Z,-1.70
2019-01-23T00:54:49.335Z,-1.60
2019-01-23T00:57:16.583Z,-1.70
2019-01-23T00:59:43.848Z,-1.60
2019-01-23T01:02:11.079Z,-1.70
2019-01-23T01:04:38.334Z,-1.70
2019-01-23T01:07:05.597Z,-1.80
2019-01-23T01:09:32.920Z,-1.80
2019-01-23T01:12:00.247Z,-1.80
2019-01-23T01:14:27.557Z,-1.70
2019-01-23T01:16:54.808Z,-1.80
2019-01-23T01:19:22.036Z,-1.70
2019-01-23T01:21:49.264Z,-1.60
2019-01-23T01:24:16.517Z,-1.50
2019-01-23T01:26:43.750Z,-1.70
2019-01-23T01:29:11.019Z,-1.60
2019-01-23T01:31:38.363Z,-1.60
2019-01-23T01:34:05.600Z,-1.70
2019-01-23T01:36:32.838Z,-1.70
2019-01-23T01:39:00.068Z,-1.60
2019-01-23T01:41:27.611Z,-1.70
2019-01-23T01:43:54.885Z,-1.60
2019-01-23T01:46:22.119Z,-1.60
2019-01-23T01:48:49.356Z,-1.60
2019-01-23T01:51:16.616Z,-1.50
2019-01-23T01:53:43.847Z,-1.50
2019-01-23T01:56:11.095Z,-1.60
2019-01-23T01:58:38.338Z,-1.70
2019-01-23T02:01:05.605Z,-1.50
2019-01-23T02:03:32.835Z,-1.60
2019-01-23T02:06:00.117Z,-1.60
2019-01-23T02:08:27.347Z,-1.50
2019-01-23T02:10:54.583Z,-1.60
2019-01-23T02:13:21.832Z,-1.60
2019-01-23T02:15:49.083Z,-1.50
2019-01-23T02:18:16.311Z,-1.70
2019-01-23T02:20:43.532Z,-1.60
2019-01-23T02:23:11.051Z,-1.70
2019-01-23T02:25:38.420Z,-1.50
2019-01-23T02:28:05.794Z,-1.50
2019-01-23T02:30:33.047Z,-1.50
2019-01-23T02:33:00.368Z,-1.60
2019-01-23T02:35:27.702Z,-1.50
2019-01-23T02:37:55.037Z,-1.60
2019-01-23T02:40:22.734Z,-1.50
2019-01-23T02:42:50.026Z,-1.40
2019-01-23T02:45:18.156Z,-1.50
2019-01-23T02:47:45.431Z,-1.40
2019-01-23T02:50:13.568Z,-1.40
2019-01-23T02:52:40.808Z,-1.50
2019-01-23T02:55:08.141Z,-1.40
2019-01-23T02:57:35.406Z,-1.50
2019-01-23T03:00:04.203Z,-1.50
2019-01-23T03:02:31.516Z,-1.50
2019-01-23T03:04:58.772Z,-1.40
2019-01-23T03:07:26.044Z,-1.40
2019-01-23T03:09:53.263Z,-1.40
2019-01-23T03:12:20.536Z,-1.50
2019-01-23T03:14:47.758Z,-1.50
2019-01-23T03:17:15.064Z,-1.40
2019-01-23T03:19:42.592Z,-1.40
2019-01-23T03:22:09.829Z,-1.50
2019-01-23T03:24:37.142Z,-1.40
2019-01-23T03:27:04.359Z,-1.50
2019-01-23T03:29:31.595Z,-1.60
2019-01-23T03:31:58.852Z,-1.30
2019-01-23T03:34:26.095Z,-1.50
2019-01-23T03:36:53.408Z,-1.40
2019-01-23T03:39:20.740Z,-1.40
2019-01-23T03:41:48.043Z,-1.50
2019-01-23T03:44:15.299Z,-1.50
2019-01-23T03:46:42.656Z,-1.30
2019-01-23T03:49:09.909Z,-1.40
2019-01-23T03:51:37.224Z,-1.40
2019-01-23T03:54:04.568Z,-1.30
2019-01-23T03:56:31.799Z,-1.40
2019-01-23T03:58:59.067Z,-1.40
2019-01-23T04:01:26.579Z,-1.40
2019-01-23T04:03:53.838Z,-1.50
2019-01-23T04:06:22.399Z,-1.40
2019-01-23T04:08:49.691Z,-1.40
2019-01-23T04:11:16.916Z,-1.40
2019-01-23T04:13:44.224Z,-1.50
2019-01-23T04:16:11.565Z,-1.50
2019-01-23T04:18:39.203Z,-1.40
2019-01-23T04:21:06.892Z,-1.40
2019-01-23T04:23:34.546Z,-1.50
2019-01-23T04:26:02.313Z,-1.40
2019-01-23T04:28:29.989Z,-1.30
2019-01-23T04:30:57.617Z,-1.30
2019-01-23T04:33:24.931Z,-1.40
2019-01-23T04:35:52.195Z,-1.50
2019-01-23T04:38:19.420Z,-1.50
2019-01-23T04:41:06.160Z,-1.50
2019-01-23T04:43:33.395Z,-1.40
2019-01-23T04:46:00.640Z,-1.50
2019-01-23T04:48:27.865Z,-1.40
2019-01-23T04:51:16.591Z,-1.40
2019-01-23T04:53:46.178Z,-1.40
2019-01-23T04:56:13.413Z,-1.50
2019-01-23T04:58:40.648Z,-1.50
2019-01-23T05:01:07.879Z,-1.40
2019-01-23T05:03:35.139Z,-1.40
2019-01-23T05:06:02.510Z,-1.40
2019-01-23T05:08:29.769Z,-1.40
2019-01-23T05:10:57.099Z,-1.40
2019-01-23T05:13:24.428Z,-1.40
2019-01-23T05:15:51.661Z,-1.40
2019-01-23T05:18:19.007Z,-1.30
2019-01-23T05:20:46.242Z,-1.40
2019-01-23T05:23:13.468Z,-1.30
2019-01-23T05:25:40.719Z,-1.30
2019-01-23T05:28:07.975Z,-1.50
2019-01-23T05:30:35.235Z,-1.60
2019-01-23T05:33:02.490Z,-1.60
2019-01-23T05:35:29.897Z,-1.60
2019-01-23T05:37:57.280Z,-1.40
2019-01-23T05:40:24.577Z,-1.30
2019-01-23T05:42:51.924Z,-1.40
2019-01-23T05:45:19.256Z,-1.50
2019-01-23T05:47:46.492Z,-1.40
2019-01-23T05:50:14.672Z,-1.40
2019-01-23T05:52:41.903Z,-1.50
2019-01-23T05:55:10.180Z,-1.40
2019-01-23T05:57:37.439Z,-1.40
2019-01-23T06:00:06.537Z,-1.30
2019-01-23T06:02:33.771Z,-1.40
2019-01-23T06:05:01.020Z,-1.50
2019-01-23T06:07:28.268Z,-1.50
2019-01-23T06:09:55.530Z,-1.50
2019-01-23T06:12:22.782Z,-1.50
2019-01-23T06:14:50.044Z,-1.40
2019-01-23T06:17:17.281Z,-1.40
2019-01-23T06:19:44.533Z,-1.40
2019-01-23T06:22:11.788Z,-1.40
2019-01-23T06:24:39.131Z,-1.50
2019-01-23T06:27:06.485Z,-1.40
2019-01-23T06:29:33.739Z,-1.40
2019-01-23T06:32:01.059Z,-1.40
2019-01-23T06:34:28.299Z,-1.30
2019-01-23T06:36:55.783Z,-1.40
2019-01-23T06:39:23.014Z,-1.40
2019-01-23T06:41:50.279Z,-1.30
2019-01-23T06:44:17.524Z,-1.40
2019-01-23T06:46:44.795Z,-1.50
2019-01-23T06:49:12.028Z,-1.40
2019-01-23T06:51:39.289Z,-1.40
2019-01-23T06:54:06.515Z,-1.50
2019-01-23T06:56:33.739Z,-1.50
2019-01-23T06:59:01.046Z,-1.60
2019-01-23T07:01:28.282Z,-1.50
2019-01-23T07:03:55.710Z,-1.50
2019-01-23T07:06:23.431Z,-1.50
2019-01-23T07:08:50.704Z,-1.40
2019-01-23T07:11:17.980Z,-1.50
2019-01-23T07:13:45.262Z,-1.60
2019-01-23T07:16:12.491Z,-1.40
2019-01-23T07:18:39.733Z,-1.50
2019-01-23T07:21:07.127Z,-1.40
2019-01-23T07:23:34.383Z,-1.50
2019-01-23T07:26:01.660Z,-1.40
2019-01-23T07:28:28.883Z,-1.50
2019-01-23T07:30:57.397Z,-1.40
2019-01-23T07:33:24.710Z,-1.40
2019-01-23T07:35:51.961Z,-1.40
2019-01-23T07:38:19.306Z,-1.40
2019-01-23T07:40:46.643Z,-1.40
2019-01-23T07:43:13.894Z,-1.40
2019-01-23T07:45:41.188Z,-1.30
2019-01-23T08:07:51.487Z,-0.90
2019-01-23T08:25:07.462Z,-0.90
2019-01-23T08:32:29.508Z,-0.80
2019-01-23T08:42:18.665Z,-0.90
2019-01-23T08:44:45.927Z,-1.00
2019-01-23T08:49:40.355Z,-0.90
2019-01-23T08:52:07.627Z,-1.00
2019-01-23T08:54:34.855Z,-1.10
2019-01-23T08:57:02.093Z,-1.00
2019-01-23T08:59:29.403Z,-0.90
2019-01-23T09:01:56.650Z,-0.90
2019-01-23T09:06:51.097Z,-0.80
2019-01-23T09:09:18.364Z,-0.80
2019-01-23T09:11:45.615Z,-0.90
2019-01-23T09:14:12.865Z,-0.80
2019-01-23T09:16:40.250Z,-0.90
2019-01-23T10:43:20.344Z,0.40
2019-01-23T10:45:47.576Z,0.00
2019-01-23T10:48:14.835Z,0.10
2019-01-23T10:50:42.172Z,0.20
2019-01-23T10:53:09.531Z,0.30
2019-01-23T10:55:36.775Z,0.30
2019-01-23T10:58:04.111Z,0.30
2019-01-23T11:00:31.911Z,0.20
2019-01-23T11:02:59.155Z,0.10
2019-01-23T11:05:26.683Z,0.10
2019-01-23T11:07:54.436Z,0.20
2019-01-23T11:10:22.740Z,0.20
2019-01-23T11:12:50.103Z,0.30
2019-01-23T11:15:17.534Z,0.50
2019-01-23T11:17:44.920Z,0.60
2019-01-23T11:20:14.283Z,0.50
2019-01-23T11:22:41.846Z,0.50
2019-01-23T11:25:10.143Z,0.50
2019-01-23T11:27:37.752Z,0.20
2019-01-23T11:30:08.137Z,0.10
2019-01-23T11:32:35.403Z,0.10
2019-01-23T11:35:03.473Z,0.10
2019-01-23T11:37:30.704Z,0.20
2019-01-23T11:39:57.938Z,0.20
2019-01-23T11:42:25.211Z,0.20
2019-01-23T11:44:52.451Z,0.30
2019-01-23T11:47:19.963Z,0.00
2019-01-23T11:49:47.572Z,0.00
2019-01-23T11:52:15.151Z,-0.10
2019-01-23T11:54:42.564Z,0.00
2019-01-23T11:57:09.819Z,0.00
2019-01-23T11:59:37.424Z,0.00
2019-01-23T12:02:04.980Z,0.00
2019-01-23T12:04:32.232Z,-0.10
2019-01-23T12:06:59.467Z,0.00
2019-01-23T12:09:26.734Z,0.00
2019-01-23T12:11:54.063Z,0.10
2019-01-23T12:14:21.310Z,0.10
2019-01-23T12:16:48.651Z,0.10
2019-01-23T12:19:15.970Z,0.00
2019-01-23T12:21:43.227Z,0.00
2019-01-23T12:24:10.471Z,0.00
2019-01-23T12:26:37.692Z,-0.20
2019-01-23T12:29:05.083Z,-0.30
2019-01-23T12:31:35.226Z,-0.10
2019-01-23T12:34:01.549Z,-0.10
2019-01-23T12:36:28.795Z,-0.10
2019-01-23T12:38:56.148Z,-0.20
2019-01-23T12:41:23.403Z,-0.20
2019-01-23T12:43:50.663Z,-0.20
2019-01-23T12:46:17.896Z,-0.10
2019-01-23T12:48:45.146Z,-0.10
2019-01-23T12:51:12.406Z,-0.20
2019-01-23T12:53:39.652Z,-0.20
2019-01-23T12:56:06.928Z,-0.10
2019-01-23T12:58:53.910Z,-0.20
2019-01-23T13:01:21.349Z,-0.20
2019-01-23T13:03:48.622Z,-0.20
2019-01-23T13:06:15.935Z,-0.20
2019-01-23T13:08:43.179Z,-0.20
2019-01-23T13:11:10.395Z,-0.10
2019-01-23T13:13:37.631Z,-0.20
2019-01-23T13:16:04.871Z,-0.20
2019-01-23T13:18:32.177Z,-0.40
2019-01-23T13:20:59.426Z,-0.40
2019-01-23T13:23:27.071Z,-0.30
2019-01-23T13:25:54.303Z,-0.40
2019-01-23T13:28:21.727Z,-0.40
2019-01-23T13:30:48.970Z,-0.40
2019-01-23T13:33:16.221Z,-0.30
2019-01-23T13:35:44.319Z,-0.20
2019-01-23T13:38:14.479Z,-0.30
2019-01-23T13:40:41.728Z,-0.20
2019-01-23T13:43:08.971Z,-0.10
2019-01-23T13:45:36.216Z,-0.10
2019-01-23T13:48:05.443Z,0.00
2019-01-23T13:50:32.679Z,0.00
2019-01-23T13:53:00.031Z,0.00
2019-01-23T13:55:27.358Z,-0.10
2019-01-23T13:57:54.611Z,-0.10
2019-01-23T14:00:26.130Z,-0.10
2019-01-23T14:02:53.434Z,-0.10
2019-01-23T14:05:21.338Z,0.00
2019-01-23T14:07:48.675Z,-0.10
2019-01-23T14:10:16.060Z,-0.10
2019-01-23T14:12:43.412Z,-0.10
2019-01-23T14:15:14.620Z,-0.10
2019-01-23T14:17:41.851Z,-0.10
2019-01-23T14:20:11.131Z,-0.20
2019-01-23T14:22:38.366Z,-0.20
2019-01-23T14:25:06.118Z,-0.20
2019-01-23T14:27:33.368Z,-0.20
2019-01-23T14:30:00.791Z,-0.20
2019-01-23T14:32:28.015Z,-0.30
2019-01-23T14:34:55.276Z,-0.20
2019-01-23T14:37:22.744Z,-0.20
2019-01-23T14:39:50.000Z,-0.30
2019-01-23T14:42:17.631Z,-0.30
2019-01-23T14:44:44.902Z,-0.40
2019-01-23T14:47:12.249Z,-0.40
2019-01-23T14:49:39.467Z,-0.40
2019-01-23T14:52:06.892Z,-0.30
2019-01-23T14:54:34.150Z,-0.30
2019-01-23T14:57:01.471Z,-0.20
2019-01-23T14:59:28.727Z,-0.30
2019-01-23T15:01:55.976Z,-0.30
2019-01-23T15:04:23.227Z,-0.50
2019-01-23T15:06:50.682Z,-0.30
2019-01-23T15:09:17.928Z,-0.50
2019-01-23T15:11:45.168Z,-0.40
2019-01-23T15:14:12.399Z,-0.60
2019-01-23T15:16:39.632Z,-0.60
2019-01-23T15:19:07.226Z,-0.60
2019-01-23T15:21:34.653Z,-0.60
2019-01-23T15:24:02.102Z,-0.70
2019-01-23T15:26:29.395Z,-0.70
2019-01-23T15:28:56.713Z,-0.70
2019-01-23T15:31:24.109Z,-0.80
2019-01-23T15:33:51.592Z,-0.80
2019-01-23T15:36:18.864Z,-0.80
2019-01-23T15:38:46.251Z,-0.90
2019-01-23T15:41:14.511Z,-0.80
2019-01-23T15:43:41.887Z,-1.00
2019-01-23T15:46:09.140Z,-0.90
2019-01-23T15:48:36.384Z,-0.90
2019-01-23T15:51:03.627Z,-0.80
2019-01-23T15:53:30.870Z,-0.90
2019-01-23T15:55:58.655Z,-0.90
2019-01-23T15:58:25.901Z,-0.90
2019-01-23T16:00:53.148Z,-0.90
2019-01-23T16:03:20.453Z,-1.00
2019-01-23T16:05:47.681Z,-1.00
2019-01-23T16:08:14.908Z,-0.90
2019-01-23T16:10:42.323Z,-1.00
2019-01-23T16:13:09.635Z,-0.90
2019-01-23T16:15:36.888Z,-0.90
2019-01-23T16:18:04.272Z,-0.90
2019-01-23T16:20:31.511Z,-0.90
2019-01-23T16:23:02.379Z,-0.90
2019-01-23T16:25:29.824Z,-0.90
2019-01-23T16:27:57.139Z,-0.90
2019-01-23T16:33:02.439Z,-0.70
2019-01-23T16:40:24.276Z,-0.50
2019-01-23T16:47:46.583Z,-0.50
2019-01-23T16:52:42.717Z,-1.30
2019-01-23T16:55:10.503Z,-0.90
2019-01-23T17:19:46.104Z,-0.40
2019-01-23T17:22:13.363Z,-0.90
2019-01-23T17:24:40.711Z,-1.10
2019-01-23T17:27:07.944Z,-1.00
2019-01-23T17:29:35.209Z,-1.00
2019-01-23T17:32:03.213Z,-0.90
2019-01-23T17:34:30.477Z,-1.10
2019-01-23T17:36:59.395Z,-1.00
2019-01-23T17:39:26.671Z,-1.10
2019-01-23T17:41:53.924Z,-1.00
2019-01-23T17:44:21.395Z,-1.00
2019-01-23T17:46:48.867Z,-1.00
2019-01-23T17:49:16.796Z,-1.20
2019-01-23T17:51:44.178Z,-1.00
2019-01-23T17:54:11.442Z,-1.00
2019-01-23T17:56:38.709Z,-1.00
2019-01-23T17:59:06.083Z,-1.00
2019-01-23T18:01:33.320Z,-1.10
2019-01-23T18:04:00.610Z,-1.20
2019-01-23T18:06:27.985Z,-1.10
2019-01-23T18:08:55.249Z,-1.10
2019-01-23T18:11:22.593Z,-1.10
2019-01-23T18:13:50.563Z,-1.00
2019-01-23T18:16:18.081Z,-1.10
2019-01-23T18:18:45.771Z,-1.10
2019-01-23T18:21:13.599Z,-1.10
2019-01-23T18:23:40.891Z,-1.00
2019-01-23T18:26:08.289Z,-1.10
2019-01-23T18:28:35.551Z,-1.10
2019-01-23T18:31:13.835Z,-1.00
2019-01-23T18:33:51.251Z,-1.10
2019-01-23T18:36:45.716Z,-1.10
2019-01-23T18:39:41.696Z,-1.10
2019-01-23T18:42:36.850Z,-1.10
2019-01-23T18:45:50.669Z,-1.20
2019-01-23T18:49:04.749Z,-1.10
2019-01-23T18:51:41.136Z,-1.20
2019-01-23T18:54:08.931Z,-1.10
2019-01-23T18:56:37.062Z,-1.20
2019-01-23T18:59:04.599Z,-1.10
2019-01-23T19:01:31.851Z,-1.20
2019-01-23T19:03:59.217Z,-1.10
2019-01-23T19:06:26.567Z,-1.10
2019-01-23T19:08:54.095Z,-1.10
2019-01-23T19:11:22.431Z,-1.10
2019-01-23T19:13:50.142Z,-1.10
2019-01-23T19:16:17.389Z,-1.10
2019-01-23T19:18:44.695Z,-1.10
2019-01-23T19:21:11.922Z,-1.10
2019-01-23T19:23:40.513Z,-1.10
2019-01-23T19:26:07.797Z,-1.20
2019-01-23T19:28:35.083Z,-1.10
2019-01-23T19:31:02.404Z,-1.10
2019-01-23T19:33:29.653Z,-1.10
2019-01-23T19:35:56.906Z,-1.10
2019-01-23T19:38:24.587Z,-1.10
2019-01-23T19:40:52.029Z,-1.10
2019-01-23T19:43:19.292Z,-1.10
2019-01-23T19:45:46.619Z,-1.00
2019-01-23T19:48:13.957Z,-1.10
2019-01-23T19:50:41.208Z,-1.10
2019-01-23T19:53:08.456Z,-1.00
2019-01-23T19:55:35.712Z,-1.10
2019-01-23T19:58:04.496Z,-1.10
2019-01-23T20:00:31.915Z,-1.00
2019-01-23T20:02:59.141Z,-1.00
2019-01-23T20:05:30.621Z,-1.10
2019-01-23T20:07:57.961Z,-1.10
2019-01-23T20:10:26.041Z,-1.10
2019-01-23T20:12:53.367Z,-1.20
2019-01-23T20:15:20.887Z,-1.20
2019-01-23T20:17:49.899Z,-1.30
2019-01-23T20:20:17.131Z,-1.20
2019-01-23T20:22:44.519Z,-1.20
2019-01-23T20:25:17.647Z,-1.20
2019-01-23T20:27:45.172Z,-1.20
2019-01-23T20:30:16.472Z,-1.10
2019-01-23T20:32:43.845Z,-1.20
2019-01-23T20:35:11.088Z,-1.10
2019-01-23T20:52:23.744Z,-0.70
2019-01-23T21:04:40.554Z,-0.70
2019-01-23T21:07:07.844Z,-1.00
2019-01-23T21:09:35.089Z,-1.20
2019-01-23T21:12:02.356Z,-1.10
2019-01-23T21:14:29.635Z,-1.20
2019-01-23T21:16:57.473Z,-1.20
2019-01-23T21:19:25.256Z,-1.30
2019-01-23T21:21:52.641Z,-1.20
2019-01-23T21:24:19.899Z,-1.40
2019-01-23T21:26:47.211Z,-1.30
2019-01-23T21:29:14.768Z,-1.30
2019-01-23T21:31:42.116Z,-1.30
2019-01-23T21:34:09.392Z,-1.30
2019-01-23T21:36:36.679Z,-1.20
2019-01-23T21:39:07.026Z,-1.30
2019-01-23T21:41:34.251Z,-1.30
2019-01-23T21:44:01.852Z,-1.20
2019-01-23T21:46:29.259Z,-1.20
2019-01-23T21:48:56.495Z,-1.30
2019-01-23T21:51:23.756Z,-1.30
2019-01-23T21:53:51.088Z,-1.20
2019-01-23T21:56:18.325Z,-1.20
2019-01-23T21:58:45.591Z,-1.40
2019-01-23T22:01:12.828Z,-1.30
2019-01-23T22:03:40.291Z,-1.20
2019-01-23T22:06:07.540Z,-1.30
2019-01-23T22:08:34.810Z,-1.20
2019-01-23T22:11:02.036Z,-1.20
2019-01-23T22:13:29.391Z,-1.20
2019-01-23T22:15:56.797Z,-1.20
2019-01-23T22:18:24.439Z,-1.20
2019-01-23T22:20:51.858Z,-1.20
2019-01-23T22:23:19.283Z,-1.20
2019-01-23T22:25:46.685Z,-1.20
2019-01-23T22:28:14.161Z,-1.30
2019-01-23T22:30:41.388Z,-1.10
2019-01-23T22:33:08.636Z,-1.20
2019-01-23T22:35:35.889Z,-1.20
2019-01-23T22:38:04.440Z,-1.20
2019-01-23T22:40:31.717Z,-1.30
2019-01-23T22:42:59.042Z,-1.30
2019-01-23T22:45:26.292Z,-1.20
2019-01-23T22:47:53.546Z,-1.30
2019-01-23T22:50:22.466Z,-1.20
2019-01-23T22:52:49.924Z,-1.20
2019-01-23T22:55:17.447Z,-1.30
2019-01-23T22:57:45.325Z,-1.30
2019-01-23T23:00:24.267Z,-1.20
2019-01-23T23:02:51.669Z,-1.20
2019-01-23T23:05:18.990Z,-1.20
2019-01-23T23:07:46.325Z,-1.10
2019-01-23T23:10:14.203Z,-1.30
2019-01-23T23:12:41.443Z,-1.30
2019-01-23T23:15:08.896Z,-1.30
2019-01-23T23:17:36.124Z,-1.20
2019-01-23T23:20:04.246Z,-1.20
2019-01-23T23:22:31.511Z,-1.30
2019-01-23T23:24:58.766Z,-1.30
2019-01-23T23:27:45.556Z,-1.20
2019-01-23T23:30:13.759Z,-1.20
2019-01-23T23:32:41.076Z,-1.20
2019-01-23T23:35:08.353Z,-1.30
2019-01-23T23:37:35.604Z,-1.30
2019-01-23T23:40:04.699Z,-1.20
2019-01-23T23:42:31.971Z,-1.20
2019-01-23T23:47:29.270Z,-1.20
2019-01-23T23:49:56.517Z,-1.10
2019-01-23T23:52:23.740Z,-1.20
2019-01-23T23:54:51.003Z,-1.30
2019-01-23T23:57:18.299Z,-1.20
2019-01-23T23:59:45.523Z,-1.30
